Time;durP1;ratioP1;P1;durP2;ratioP2;P2;SDS_P1;SDS_P2;PMS_P1;PMS_P2;Temp;Humidity;BMP_temperature;BMP_pressure;BME280_temperature;BME280_humidity;BME280_pressure;Samples;Min_cycle;Max_cycle;Signal;HPM_P1;HPM_P2
2023/06/15 00:00:48;;;;;;;8.60;2.58;;;;;;;17.37;77.79;101471.19;6277909;22;20003;-86
2023/06/15 00:03:14;;;;;;;3.65;2.45;;;;;;;17.35;77.81;101472.34;6252920;22;20065;-86
2023/06/15 00:05:39;;;;;;;2.63;2.30;;;;;;;17.37;77.36;101468.44;6277279;22;20343;-84
2023/06/15 00:08:05;;;;;;;5.35;2.47;;;;;;;17.36;76.97;101461.13;6226849;22;20015;-86
2023/06/15 00:10:30;;;;;;;2.78;2.58;;;;;;;17.52;77.11;101481.78;6228393;22;20011;-86
2023/06/15 00:12:56;;;;;;;6.57;2.75;;;;;;;17.33;78.00;101483.59;6235784;22;20054;-84
2023/06/15 00:15:21;;;;;;;8.43;4.10;;;;;;;17.20;77.74;101472.88;6245738;22;20068;-86
2023/06/15 00:17:48;;;;;;;3.50;2.67;;;;;;;17.02;78.28;101446.97;6267623;22;20030;-86
2023/06/15 00:20:15;;;;;;;3.28;2.97;;;;;;;17.24;78.55;101484.50;6289440;22;20003;-86
2023/06/15 00:22:45;;;;;;;4.18;2.67;;;;;;;17.12;77.82;101460.78;6279761;22;20007;-85
2023/06/15 00:25:11;;;;;;;4.35;3.00;;;;;;;17.15;77.87;101480.75;6280000;22;20424;-86
2023/06/15 00:27:37;;;;;;;5.78;2.78;;;;;;;16.94;82.01;101475.41;6280334;22;20124;-86
2023/06/15 00:30:03;;;;;;;7.95;2.70;;;;;;;16.77;84.85;101474.19;6227905;22;20018;-86
2023/06/15 00:32:29;;;;;;;6.43;2.80;;;;;;;16.72;86.84;101482.97;6228062;22;20434;-86
2023/06/15 00:34:54;;;;;;;8.95;2.72;;;;;;;16.75;88.05;101486.44;6280760;22;20015;-86
2023/06/15 00:37:20;;;;;;;5.93;2.63;;;;;;;16.52;89.64;101472.91;6279025;22;20023;-86
2023/06/15 00:39:45;;;;;;;6.28;3.17;;;;;;;16.73;88.88;101483.81;6202230;22;20028;-85
2023/06/15 00:42:11;;;;;;;3.83;2.40;;;;;;;16.67;89.48;101488.03;6252596;22;20030;-86
2023/06/15 00:44:36;;;;;;;4.68;2.70;;;;;;;16.57;89.24;101473.34;6252638;22;20015;-86
2023/06/15 00:47:02;;;;;;;6.00;2.67;;;;;;;16.69;88.42;101486.00;6253694;22;20042;-86
2023/06/15 00:49:28;;;;;;;7.28;2.83;;;;;;;16.54;88.32;101482.81;6280393;22;20011;-86
2023/06/15 00:51:55;;;;;;;3.35;2.90;;;;;;;16.60;88.07;101486.00;6251994;22;20426;-86
2023/06/15 00:54:23;;;;;;;3.90;2.50;;;;;;;16.51;87.63;101472.03;6251340;22;20011;-86
2023/06/15 00:56:52;;;;;;;5.00;2.38;;;;;;;16.60;87.26;101486.88;6276843;22;20008;-85
2023/06/15 00:59:19;;;;;;;4.18;3.03;;;;;;;16.69;86.60;101490.66;6225820;22;20015;-86
2023/06/15 01:01:47;;;;;;;3.15;2.85;;;;;;;16.61;86.83;101493.25;6274234;22;20452;-78
2023/06/15 01:04:13;;;;;;;6.13;2.85;;;;;;;16.51;87.90;101485.88;6273416;22;20008;-79
2023/06/15 01:06:42;;;;;;;3.40;3.10;;;;;;;16.49;87.61;101492.53;6272879;22;20014;-78
2023/06/15 01:09:11;;;;;;;4.95;2.97;;;;;;;16.41;88.19;101493.25;6272426;22;20007;-78
2023/06/15 01:11:38;;;;;;;12.30;2.92;;;;;;;16.47;88.07;101478.00;6274212;22;20083;-78
2023/06/15 01:14:05;;;;;;;4.97;3.00;;;;;;;16.46;88.28;101487.28;6274237;22;20015;-78
2023/06/15 01:16:41;;;;;;;7.22;2.95;;;;;;;16.48;88.05;101483.38;6274321;22;20023;-78
2023/06/15 01:19:21;;;;;;;4.30;2.88;;;;;;;16.38;88.38;101481.63;6271993;22;20031;-80
2023/06/15 01:21:47;;;;;;;3.50;2.97;;;;;;;16.36;88.74;101484.53;6246806;22;20449;-79
2023/06/15 01:24:20;;;;;;;6.20;2.90;;;;;;;16.51;88.62;101496.03;6246728;22;20485;-78
2023/06/15 01:26:49;;;;;;;3.95;2.95;;;;;;;16.39;89.03;101484.25;6272296;22;20023;-78
2023/06/15 01:29:16;;;;;;;8.05;3.33;;;;;;;16.34;89.42;101492.09;6271953;22;20007;-78
2023/06/15 01:31:43;;;;;;;5.60;2.85;;;;;;;16.27;90.02;101483.50;6247642;22;20015;-80
2023/06/15 01:34:08;;;;;;;7.32;3.03;;;;;;;16.36;90.10;101492.81;6247049;22;20077;-79
2023/06/15 01:36:36;;;;;;;4.53;3.33;;;;;;;16.32;90.66;101486.72;6247275;22;20433;-78
2023/06/15 01:39:05;;;;;;;3.20;3.00;;;;;;;16.33;90.90;101487.56;6272241;22;20015;-79
2023/06/15 01:41:34;;;;;;;5.85;3.28;;;;;;;16.22;91.83;101491.34;6272355;22;20015;-77
2023/06/15 01:44:01;;;;;;;4.72;3.20;;;;;;;16.15;92.46;101496.56;6271906;22;20007;-77
2023/06/15 01:46:28;;;;;;;6.40;3.17;;;;;;;15.97;94.25;101484.44;6247092;22;20050;-78
2023/06/15 01:48:55;;;;;;;6.15;3.40;;;;;;;15.97;96.41;101498.25;6248234;22;20441;-78
2023/06/15 01:51:23;;;;;;;5.25;2.97;;;;;;;15.84;98.32;101494.88;6274481;22;20087;-78
2023/06/15 01:53:49;;;;;;;8.20;3.45;;;;;;;15.87;98.36;101492.72;6249485;22;20289;-78
2023/06/15 01:56:15;;;;;;;4.50;3.67;;;;;;;15.83;98.03;101509.72;6275392;22;20008;-78
2023/06/15 01:58:40;;;;;;;3.38;3.05;;;;;;;15.93;97.38;101500.44;6275488;22;20022;-78
2023/06/15 02:01:06;;;;;;;11.13;3.20;;;;;;;15.77;96.91;101480.75;6275470;22;20339;-78
2023/06/15 02:03:32;;;;;;;3.13;2.92;;;;;;;15.85;96.62;101477.31;6249683;22;20031;-79
2023/06/15 02:05:57;;;;;;;3.65;3.05;;;;;;;15.92;96.38;101484.00;6275562;22;20020;-78
2023/06/15 02:08:23;;;;;;;5.30;3.35;;;;;;;15.89;97.33;101498.09;6275362;22;20082;-78
2023/06/15 02:10:48;;;;;;;7.32;3.33;;;;;;;15.87;97.06;101489.97;6224323;22;20020;-78
2023/06/15 02:13:14;;;;;;;4.95;3.08;;;;;;;15.90;97.02;101497.94;6249928;22;20046;-78
2023/06/15 02:15:40;;;;;;;3.78;2.88;;;;;;;15.85;97.53;101505.78;6248306;22;20736;-78
2023/06/15 02:18:11;;;;;;;5.85;3.10;;;;;;;15.73;99.22;101498.59;6276292;22;20008;-78
2023/06/15 02:20:40;;;;;;;5.97;3.15;;;;;;;15.84;97.28;101506.81;6276266;22;20011;-78
2023/06/15 02:23:06;;;;;;;5.10;3.00;;;;;;;15.78;97.38;101497.19;6275059;22;20439;-78
2023/06/15 02:25:33;;;;;;;5.35;2.88;;;;;;;15.68;99.76;101501.78;6276700;22;20095;-77
2023/06/15 02:27:58;;;;;;;2.92;2.72;;;;;;;15.62;98.62;101486.63;6275346;22;20007;-77
2023/06/15 02:30:25;;;;;;;4.55;3.03;;;;;;;15.69;99.81;101505.41;6276591;22;20014;-77
2023/06/15 02:32:53;;;;;;;3.40;3.05;;;;;;;15.66;100.00;101511.19;6275132;22;20031;-77
2023/06/15 02:35:19;;;;;;;3.53;3.22;;;;;;;15.66;100.00;101502.91;6276844;22;20004;-77
2023/06/15 02:37:45;;;;;;;4.60;3.13;;;;;;;15.65;99.91;101515.00;6276680;22;20014;-78
2023/06/15 02:40:11;;;;;;;5.63;3.17;;;;;;;15.67;99.66;101511.06;6276830;22;20015;-77
2023/06/15 02:42:37;;;;;;;4.20;2.83;;;;;;;15.65;100.00;101521.38;6249401;22;20016;-77
2023/06/15 02:45:06;;;;;;;5.57;3.00;;;;;;;15.51;100.00;101511.59;6248795;22;20373;-77
2023/06/15 02:47:33;;;;;;;4.35;3.20;;;;;;;15.69;100.00;101522.84;6276969;22;20427;-78
2023/06/15 02:49:59;;;;;;;4.78;3.10;;;;;;;15.68;100.00;101517.47;6275945;22;20004;-77
2023/06/15 02:52:30;;;;;;;6.90;3.15;;;;;;;15.72;100.00;101518.94;6253751;22;20454;-78
2023/06/15 02:54:57;;;;;;;6.47;3.28;;;;;;;15.77;100.00;101527.69;6274537;22;20386;-78
2023/06/15 02:57:23;;;;;;;8.20;3.53;;;;;;;15.66;100.00;101511.19;6276803;22;20088;-78
2023/06/15 02:59:49;;;;;;;6.20;3.60;;;;;;;15.57;100.00;101512.91;6224088;22;20395;-77
2023/06/15 03:02:15;;;;;;;4.10;3.70;;;;;;;15.52;100.00;101520.72;6274816;22;20085;-77
2023/06/15 03:04:47;;;;;;;8.00;4.00;;;;;;;15.47;100.00;101512.84;6276251;22;20396;-77
2023/06/15 03:07:16;;;;;;;5.50;4.30;;;;;;;15.52;100.00;101518.84;6251268;22;20008;-78
2023/06/15 03:09:50;;;;;;;8.55;3.75;;;;;;;15.55;100.00;101524.09;6249752;22;20419;-77
2023/06/15 03:12:17;;;;;;;17.98;4.20;;;;;;;15.63;100.00;101521.50;6274755;22;20320;-76
2023/06/15 03:14:44;;;;;;;4.50;3.80;;;;;;;15.46;100.00;101519.38;6273644;22;20007;-77
2023/06/15 03:17:12;;;;;;;6.75;4.03;;;;;;;15.39;100.00;101523.72;6247613;22;20008;-77
2023/06/15 03:19:39;;;;;;;8.93;3.90;;;;;;;15.50;100.00;101517.25;6248073;22;20024;-76
2023/06/15 03:22:07;;;;;;;5.75;3.75;;;;;;;15.45;100.00;101520.41;6275496;22;20011;-76
2023/06/15 03:24:33;;;;;;;9.43;4.72;;;;;;;15.36;100.00;101523.97;6199052;22;20077;-76
2023/06/15 03:27:05;;;;;;;8.73;4.30;;;;;;;15.43;100.00;101527.97;6277460;22;20082;-77
2023/06/15 03:29:31;;;;;;;5.55;4.03;;;;;;;15.30;100.00;101519.91;6280031;22;20004;-77
2023/06/15 03:31:58;;;;;;;8.43;4.72;;;;;;;15.28;100.00;101529.31;6223317;22;20374;-77
2023/06/15 03:34:25;;;;;;;4.65;4.25;;;;;;;15.39;100.00;101527.34;6273403;22;20082;-77
2023/06/15 03:36:52;;;;;;;4.85;4.35;;;;;;;15.50;100.00;101525.53;6273483;22;20004;-78
2023/06/15 03:39:21;;;;;;;8.20;4.45;;;;;;;15.40;100.00;101533.75;6273223;22;20011;-76
2023/06/15 03:41:46;;;;;;;10.57;4.32;;;;;;;15.34;100.00;101517.72;6247823;22;20401;-78
2023/06/15 03:44:12;;;;;;;4.90;4.40;;;;;;;15.36;100.00;101527.59;6247349;22;20057;-78
2023/06/15 03:46:37;;;;;;;9.40;4.68;;;;;;;15.38;100.00;101520.09;6247755;22;20016;-78
2023/06/15 03:49:03;;;;;;;5.15;4.65;;;;;;;15.35;100.00;101525.00;6274455;22;20778;-77
2023/06/15 03:51:28;;;;;;;26.17;4.63;;;;;;;15.36;100.00;101523.97;6247920;22;20007;-77
2023/06/15 03:53:54;;;;;;;6.43;4.47;;;;;;;15.38;100.00;101533.00;6247393;22;20022;-77
2023/06/15 03:56:20;;;;;;;4.90;4.40;;;;;;;15.47;100.00;101526.66;6222054;22;20154;-78
2023/06/15 03:58:45;;;;;;;9.73;6.00;;;;;;;15.39;100.00;101520.94;6223235;22;20347;-76
2023/06/15 04:01:14;;;;;;;5.97;4.88;;;;;;;15.39;100.00;101515.44;6275783;22;20053;-77
2023/06/15 04:03:40;;;;;;;4.35;3.97;;;;;;;15.51;100.00;101524.50;6274625;22;20503;-77
2023/06/15 04:06:06;;;;;;;7.35;4.78;;;;;;;15.58;100.00;101534.00;6249630;22;20016;-79
2023/06/15 04:08:32;;;;;;;6.30;4.40;;;;;;;15.55;100.00;101537.03;6248972;22;20015;-79
2023/06/15 04:10:58;;;;;;;5.57;4.63;;;;;;;15.58;100.00;101543.13;6247407;22;20015;-79
2023/06/15 04:13:24;;;;;;;5.60;5.00;;;;;;;15.61;100.00;101520.78;6271541;22;20038;-79
2023/06/15 04:15:50;;;;;;;8.00;4.70;;;;;;;15.68;100.00;101545.09;6222498;22;20386;-80
2023/06/15 04:18:16;;;;;;;7.97;4.78;;;;;;;15.75;100.00;101540.75;6273943;22;20106;-79
2023/06/15 04:20:43;;;;;;;12.70;5.50;;;;;;;15.66;100.00;101533.28;6275970;22;20041;-78
2023/06/15 04:23:10;;;;;;;11.20;4.93;;;;;;;15.79;100.00;101543.13;6277393;22;20004;-80
2023/06/15 04:25:37;;;;;;;14.55;5.85;;;;;;;15.85;100.00;101551.88;6277286;22;20015;-77
2023/06/15 04:28:05;;;;;;;11.23;5.53;;;;;;;15.74;100.00;101530.69;6252793;22;20304;-78
2023/06/15 04:30:32;;;;;;;10.95;4.80;;;;;;;15.89;100.00;101545.94;6277607;22;20004;-78
2023/06/15 04:32:59;;;;;;;11.80;5.07;;;;;;;16.00;100.00;101555.97;6276154;22;20439;-78
2023/06/15 04:35:31;;;;;;;7.18;5.75;;;;;;;16.09;100.00;101560.69;6251230;22;20012;-79
2023/06/15 04:37:58;;;;;;;7.72;5.68;;;;;;;16.11;100.00;101560.53;6281186;22;20008;-76
2023/06/15 04:40:24;;;;;;;7.78;5.43;;;;;;;16.04;100.00;101560.22;6274084;22;20065;-77
2023/06/15 04:42:52;;;;;;;7.40;5.88;;;;;;;16.14;100.00;101572.19;6276424;22;20011;-77
2023/06/15 04:45:17;;;;;;;9.38;5.97;;;;;;;16.08;100.00;101560.81;6274726;22;20466;-77
2023/06/15 04:47:43;;;;;;;14.20;6.95;;;;;;;16.21;100.00;101569.72;6252246;22;20012;-77
2023/06/15 04:50:13;;;;;;;9.18;6.07;;;;;;;16.30;100.00;101570.78;6275113;22;20090;-77
2023/06/15 04:52:45;;;;;;;10.98;6.45;;;;;;;16.28;100.00;101568.16;6278694;22;20027;-76
2023/06/15 04:55:11;;;;;;;7.78;6.72;;;;;;;16.31;100.00;101567.84;6282543;22;20015;-78
2023/06/15 04:57:37;;;;;;;14.57;6.65;;;;;;;16.35;100.00;101574.00;6260033;22;20008;-79
2023/06/15 05:00:06;;;;;;;12.75;6.95;;;;;;;16.44;100.00;101572.25;6281080;22;20090;-78
2023/06/15 05:02:32;;;;;;;8.68;6.80;;;;;;;16.39;100.00;101575.44;6282937;22;20099;-77
2023/06/15 05:04:57;;;;;;;7.82;6.68;;;;;;;16.60;100.00;101582.78;6280916;22;20019;-77
2023/06/15 05:07:23;;;;;;;8.90;6.47;;;;;;;16.61;100.00;101571.59;6277193;22;20126;-77
2023/06/15 05:09:48;;;;;;;7.88;6.20;;;;;;;16.63;100.00;101580.59;6274724;22;20442;-77
2023/06/15 05:12:14;;;;;;;14.90;6.95;;;;;;;16.68;100.00;101580.16;6253139;22;20012;-78
2023/06/15 05:14:39;;;;;;;8.50;7.28;;;;;;;16.71;100.00;101578.00;6273148;22;20015;-77
2023/06/15 05:17:05;;;;;;;12.15;7.43;;;;;;;16.84;100.00;101566.66;6271240;22;20048;-78
2023/06/15 05:19:31;;;;;;;10.30;8.25;;;;;;;16.95;100.00;101568.41;6272313;22;20015;-77
2023/06/15 05:22:02;;;;;;;13.15;8.20;;;;;;;17.30;100.00;101577.13;6270169;22;20022;-78
2023/06/15 05:24:28;;;;;;;8.77;7.70;;;;;;;17.69;100.00;101577.91;6273741;22;20569;-77
2023/06/15 05:26:54;;;;;;;13.68;7.13;;;;;;;17.72;100.00;101576.75;6275524;22;20011;-78
2023/06/15 05:29:20;;;;;;;9.52;7.65;;;;;;;18.03;98.40;101577.38;6272242;22;20086;-78
2023/06/15 05:31:46;;;;;;;8.88;7.38;;;;;;;18.05;97.86;101575.31;6271706;22;20104;-77
2023/06/15 05:34:12;;;;;;;13.60;7.07;;;;;;;18.74;92.09;101571.13;6273632;22;20004;-78
2023/06/15 05:36:37;;;;;;;7.88;6.63;;;;;;;18.84;91.86;101568.31;6273397;22;20019;-78
2023/06/15 05:39:03;;;;;;;11.02;6.90;;;;;;;19.28;89.11;101576.69;6274429;22;20087;-77
2023/06/15 05:41:29;;;;;;;9.38;7.43;;;;;;;19.13;90.91;101580.19;6248052;22;20007;-78
2023/06/15 05:43:54;;;;;;;9.38;5.97;;;;;;;20.09;84.43;101587.69;6274610;22;20016;-78
2023/06/15 05:46:20;;;;;;;11.65;6.85;;;;;;;19.73;83.91;101588.66;6247784;22;20011;-78
2023/06/15 05:48:45;;;;;;;11.00;7.05;;;;;;;19.96;82.45;101590.91;6249839;22;20007;-78
2023/06/15 05:51:11;;;;;;;9.38;6.93;;;;;;;19.80;82.36;101591.69;6274095;22;20667;-79
2023/06/15 05:53:36;;;;;;;16.60;6.60;;;;;;;20.59;79.66;101595.16;6278383;22;20019;-80
2023/06/15 05:56:03;;;;;;;13.10;6.35;;;;;;;20.89;78.05;101590.94;6278161;22;20016;-80
2023/06/15 05:58:29;;;;;;;9.05;6.32;;;;;;;21.26;74.97;101594.25;6251062;22;20018;-79
2023/06/15 06:00:54;;;;;;;14.80;6.97;;;;;;;21.25;74.16;101593.41;6224162;22;20027;-79
2023/06/15 06:03:20;;;;;;;15.38;6.60;;;;;;;21.32;72.26;101595.47;6272872;22;20034;-78
2023/06/15 06:05:45;;;;;;;8.80;6.38;;;;;;;21.76;71.58;101590.44;6248355;22;20335;-80
2023/06/15 06:08:10;;;;;;;13.90;6.13;;;;;;;21.78;71.51;101588.31;6277711;22;20091;-80
2023/06/15 06:10:36;;;;;;;9.52;6.63;;;;;;;21.63;71.69;101599.31;6253923;22;20011;-80
2023/06/15 06:13:01;;;;;;;11.55;7.72;;;;;;;22.36;68.72;101590.94;6276672;22;20019;-80
2023/06/15 06:15:27;;;;;;;21.20;6.93;;;;;;;23.32;63.25;101586.00;6278599;22;20007;-79
2023/06/15 06:17:52;;;;;;;9.90;6.55;;;;;;;22.71;64.88;101597.03;6251719;22;20026;-80
2023/06/15 06:20:18;;;;;;;14.90;7.50;;;;;;;22.97;65.40;101596.69;6251652;22;20019;-82
2023/06/15 06:22:44;;;;;;;7.55;6.85;;;;;;;22.89;64.78;101593.97;6252043;22;20391;-82
2023/06/15 06:25:11;;;;;;;11.80;7.07;;;;;;;23.39;62.74;101586.13;6276080;22;20019;-81
2023/06/15 06:27:36;;;;;;;9.90;7.30;;;;;;;23.00;63.87;101590.75;6277788;22;20078;-81
2023/06/15 06:30:02;;;;;;;9.68;6.55;;;;;;;23.74;59.15;101597.66;6201256;22;20042;-81
2023/06/15 06:32:28;;;;;;;12.75;6.70;;;;;;;23.25;61.38;101590.59;6275857;22;20026;-81
2023/06/15 06:34:53;;;;;;;12.98;6.65;;;;;;;23.72;59.97;101600.66;6248222;22;20039;-81
2023/06/15 06:37:19;;;;;;;13.05;7.18;;;;;;;23.66;59.83;101591.09;6200928;22;20007;-80
2023/06/15 06:39:44;;;;;;;10.73;6.50;;;;;;;23.58;59.07;101590.28;6276964;22;20094;-81
2023/06/15 06:42:10;;;;;;;14.95;6.97;;;;;;;24.37;57.41;101599.06;6280450;22;20046;-80
2023/06/15 06:44:36;;;;;;;12.82;6.55;;;;;;;23.71;58.94;101601.72;6273228;22;20107;-80
2023/06/15 06:47:04;;;;;;;14.43;6.80;;;;;;;23.72;59.98;101597.84;6276993;22;20343;-80
2023/06/15 06:49:30;;;;;;;16.73;7.15;;;;;;;24.27;58.20;101603.22;6249616;22;20008;-80
2023/06/15 06:51:55;;;;;;;11.45;6.57;;;;;;;25.12;56.02;101601.69;6249135;22;20083;-80
2023/06/15 06:54:21;;;;;;;20.70;6.78;;;;;;;24.81;56.70;101608.47;6249664;22;20011;-81
2023/06/15 06:56:46;;;;;;;19.48;7.35;;;;;;;24.87;53.04;101604.00;6276682;22;20015;-80
2023/06/15 06:59:12;;;;;;;20.52;7.88;;;;;;;25.02;52.35;101606.75;6275795;22;20027;-79
2023/06/15 07:01:37;;;;;;;12.25;6.78;;;;;;;25.33;52.37;101614.00;6274319;22;20019;-79
2023/06/15 07:04:03;;;;;;;16.67;7.78;;;;;;;25.46;51.51;101603.78;6224024;22;20457;-78
2023/06/15 07:06:29;;;;;;;12.70;6.60;;;;;;;26.00;48.54;101615.47;6248732;22;20016;-76
2023/06/15 07:08:54;;;;;;;8.48;4.90;;;;;;;25.77;46.48;101610.09;6275342;22;20035;-77
2023/06/15 07:11:20;;;;;;;6.95;5.25;;;;;;;25.92;48.01;101616.44;6273922;22;20462;-77
2023/06/15 07:13:45;;;;;;;8.35;4.90;;;;;;;25.87;46.66;101610.59;6272977;22;20049;-77
2023/06/15 07:16:11;;;;;;;7.38;4.57;;;;;;;26.46;44.81;101617.66;6275726;22;20018;-79
2023/06/15 07:18:36;;;;;;;7.97;4.50;;;;;;;26.15;45.72;101613.38;6275498;22;20427;-75
2023/06/15 07:21:02;;;;;;;11.88;4.28;;;;;;;26.58;45.74;101609.50;6248370;22;20069;-75
2023/06/15 07:23:28;;;;;;;11.68;4.40;;;;;;;26.34;45.04;101608.13;6248339;22;20320;-75
2023/06/15 07:25:54;;;;;;;10.38;4.63;;;;;;;26.50;44.13;101616.19;6248371;22;20428;-77
2023/06/15 07:28:20;;;;;;;6.57;4.32;;;;;;;26.42;44.55;101608.81;6273620;22;20018;-76
2023/06/15 07:30:49;;;;;;;11.05;4.82;;;;;;;26.55;45.81;101601.53;6274113;22;20023;-77
2023/06/15 07:33:15;;;;;;;13.20;4.53;;;;;;;26.77;44.41;101607.91;6273690;22;20020;-76
2023/06/15 07:35:41;;;;;;;14.10;4.00;;;;;;;26.50;43.75;101606.88;6275580;22;20090;-76
2023/06/15 07:38:07;;;;;;;9.60;3.90;;;;;;;27.45;43.28;101605.03;6273801;22;20116;-76
2023/06/15 07:40:32;;;;;;;7.38;3.80;;;;;;;26.78;44.31;101604.03;6248252;22;20039;-76
2023/06/15 07:42:58;;;;;;;5.60;3.75;;;;;;;27.34;41.64;101602.88;6248170;22;20011;-76
2023/06/15 07:45:23;;;;;;;5.95;3.55;;;;;;;27.12;42.40;101604.94;6248183;22;20432;-76
2023/06/15 07:47:48;;;;;;;9.93;3.88;;;;;;;27.53;42.26;101606.75;6223397;22;20443;-77
2023/06/15 07:50:14;;;;;;;8.07;2.50;;;;;;;27.63;41.07;101612.84;6275601;22;20019;-77
2023/06/15 07:52:39;;;;;;;9.45;3.05;;;;;;;27.45;40.83;101612.59;6248303;22;20371;-77
2023/06/15 07:55:06;;;;;;;6.50;3.20;;;;;;;28.39;38.23;101613.41;6247463;22;20015;-81
2023/06/15 07:57:31;;;;;;;4.03;2.30;;;;;;;28.03;38.86;101615.63;6248316;22;20077;-76
2023/06/15 08:00:03;;;;;;;4.15;2.13;;;;;;;28.11;37.42;101622.16;6273530;22;20016;-76
2023/06/15 08:02:28;;;;;;;3.42;2.38;;;;;;;28.75;36.29;101621.28;6273719;22;20007;-76
2023/06/15 08:04:54;;;;;;;6.63;2.30;;;;;;;27.65;36.87;101618.25;6273007;22;20145;-78
2023/06/15 08:07:19;;;;;;;7.75;2.13;;;;;;;26.94;38.31;101614.00;6248459;22;20022;-77
2023/06/15 08:09:45;;;;;;;3.92;1.90;;;;;;;27.90;36.19;101614.78;6275146;22;20012;-77
2023/06/15 08:12:10;;;;;;;4.38;2.53;;;;;;;27.75;37.44;101615.00;6273842;22;20012;-75
2023/06/15 08:14:36;;;;;;;8.63;2.60;;;;;;;28.05;37.73;101618.25;6247559;22;20031;-76
2023/06/15 08:17:02;;;;;;;5.75;1.80;;;;;;;27.28;36.45;101614.94;6274078;22;20095;-76
2023/06/15 08:19:27;;;;;;;4.82;1.77;;;;;;;27.20;36.20;101613.19;6248630;22;20023;-76
2023/06/15 08:21:53;;;;;;;3.65;2.10;;;;;;;27.27;36.34;101616.00;6247237;22;20071;-77
2023/06/15 08:24:18;;;;;;;5.63;2.28;;;;;;;27.47;36.35;101619.75;6273226;22;20007;-77
2023/06/15 08:26:44;;;;;;;6.53;1.83;;;;;;;28.64;34.07;101609.88;6274656;22;20039;-77
2023/06/15 08:29:10;;;;;;;6.03;1.90;;;;;;;28.21;35.06;101625.38;6247601;22;20465;-76
2023/06/15 08:31:36;;;;;;;20.33;2.30;;;;;;;27.51;34.96;101620.19;6273355;22;20016;-76
2023/06/15 08:34:01;;;;;;;4.70;1.95;;;;;;;27.44;35.93;101611.75;6222954;22;20289;-76
2023/06/15 08:36:28;;;;;;;3.47;2.25;;;;;;;27.94;36.23;101608.53;6247279;22;20012;-76
2023/06/15 08:38:54;;;;;;;6.50;1.95;;;;;;;28.63;36.12;101614.66;6273356;22;20019;-77
2023/06/15 08:41:22;;;;;;;2.60;1.80;;;;;;;29.15;34.12;101617.38;6273531;22;20344;-77
2023/06/15 08:43:53;;;;;;;3.50;2.08;;;;;;;28.00;36.40;101616.06;6274688;22;20008;-79
2023/06/15 08:46:18;;;;;;;6.32;2.42;;;;;;;27.41;35.53;101614.13;6247588;22;20012;-78
2023/06/15 08:48:46;;;;;;;3.72;2.17;;;;;;;27.32;37.01;101619.09;6273237;22;20015;-76
2023/06/15 08:51:12;;;;;;;3.72;2.25;;;;;;;27.98;35.96;101612.63;6272993;22;20066;-77
2023/06/15 08:53:42;;;;;;;7.07;2.38;;;;;;;27.72;36.67;101609.81;6273126;22;20011;-77
2023/06/15 08:56:11;;;;;;;6.10;2.10;;;;;;;28.39;35.39;101613.41;6248022;22;20094;-76
2023/06/15 08:58:37;;;;;;;4.40;2.40;;;;;;;29.42;32.89;101612.47;6274176;22;20007;-76
2023/06/15 09:01:02;;;;;;;4.88;2.10;;;;;;;29.49;32.76;101606.75;6278068;22;20030;-76
2023/06/15 09:03:31;;;;;;;11.68;2.60;;;;;;;28.02;34.54;101613.03;6250385;22;20030;-78
2023/06/15 09:05:57;;;;;;;5.20;2.55;;;;;;;29.36;33.06;101607.72;6277206;22;20035;-76
2023/06/15 09:08:22;;;;;;;5.30;2.30;;;;;;;29.19;33.06;101609.34;6250985;22;20012;-76
2023/06/15 09:10:47;;;;;;;6.30;2.10;;;;;;;29.02;32.71;101614.66;6276171;22;20019;-75
2023/06/15 09:13:16;;;;;;;6.85;2.15;;;;;;;28.22;33.94;101607.34;6226247;22;20023;-75
2023/06/15 09:15:50;;;;;;;6.43;2.15;;;;;;;28.58;34.37;101609.69;6275072;22;20016;-77
2023/06/15 09:18:15;;;;;;;8.45;2.50;;;;;;;28.55;33.75;101609.22;6276558;22;20007;-76
2023/06/15 09:20:41;;;;;;;10.73;2.33;;;;;;;28.66;32.93;101602.91;6278455;22;20010;-76
2023/06/15 09:23:11;;;;;;;5.47;1.92;;;;;;;28.33;33.59;101615.13;6276815;22;20129;-77
2023/06/15 09:25:36;;;;;;;5.95;2.78;;;;;;;27.55;35.08;101601.81;6252080;22;20015;-77
2023/06/15 09:28:08;;;;;;;7.18;2.60;;;;;;;27.29;36.05;101592.25;6276202;22;20023;-76
2023/06/15 09:30:36;;;;;;;6.45;2.38;;;;;;;27.75;34.96;101598.13;6278195;22;20012;-77
2023/06/15 09:33:12;;;;;;;2.80;1.98;;;;;;;27.98;34.62;101594.88;6276299;22;20453;-77
2023/06/15 09:35:56;;;;;;;4.30;2.53;;;;;;;28.08;34.38;101598.09;6277765;22;20077;-76
2023/06/15 09:38:21;;;;;;;6.88;2.28;;;;;;;27.52;35.05;101590.97;6276886;22;20003;-76
2023/06/15 09:40:47;;;;;;;4.80;2.10;;;;;;;26.69;37.16;101596.84;6250024;22;20014;-76
2023/06/15 09:43:13;;;;;;;6.47;2.20;;;;;;;26.76;36.64;101592.09;6250925;22;20050;-77
2023/06/15 09:45:54;;;;;;;3.83;1.92;;;;;;;26.77;35.71;101589.09;6250359;22;20027;-76
2023/06/15 09:48:21;;;;;;;3.95;1.95;;;;;;;28.15;34.64;101598.06;6276055;22;20117;-76
2023/06/15 09:50:51;;;;;;;5.22;2.05;;;;;;;27.90;34.61;101583.81;6277710;22;20118;-77
2023/06/15 09:53:18;;;;;;;4.93;2.60;;;;;;;26.74;36.60;101575.47;6278690;22;20081;-76
2023/06/15 09:55:46;;;;;;;7.68;2.42;;;;;;;27.69;34.60;101582.94;6275536;22;20338;-78
2023/06/15 09:58:12;;;;;;;3.17;2.20;;;;;;;27.91;34.44;101580.78;6225995;22;20022;-80
2023/06/15 10:00:37;;;;;;;7.45;2.25;;;;;;;28.30;32.47;101587.44;6276538;22;20003;-76
2023/06/15 10:03:07;;;;;;;4.10;2.20;;;;;;;28.20;34.45;101592.63;6251257;22;20012;-76
2023/06/15 10:05:40;;;;;;;3.90;2.42;;;;;;;28.83;32.84;101591.09;6226162;22;20064;-76
2023/06/15 10:08:07;;;;;;;3.90;2.08;;;;;;;28.74;33.13;101591.38;6277678;22;20126;-76
2023/06/15 10:10:36;;;;;;;5.28;2.33;;;;;;;29.56;31.86;101589.78;6224634;22;20011;-77
2023/06/15 10:13:05;;;;;;;8.32;2.65;;;;;;;29.04;32.76;101589.91;6277419;22;20011;-77
2023/06/15 10:15:34;;;;;;;3.95;2.28;;;;;;;29.89;32.79;101586.66;6275407;22;20011;-77
2023/06/15 10:18:01;;;;;;;4.05;2.05;;;;;;;29.26;31.97;101596.94;6275385;22;20008;-76
2023/06/15 10:20:29;;;;;;;5.60;2.70;;;;;;;28.58;34.88;101583.44;6250088;22;20073;-77
2023/06/15 10:23:02;;;;;;;9.85;2.97;;;;;;;27.87;33.89;101590.72;6276248;22;20707;-77
2023/06/15 10:25:30;;;;;;;7.63;2.13;;;;;;;28.22;34.13;101590.47;6276319;22;20007;-76
2023/06/15 10:27:56;;;;;;;8.60;2.30;;;;;;;28.05;33.89;101596.56;6277926;22;20034;-77
2023/06/15 10:30:30;;;;;;;4.13;2.53;;;;;;;27.49;34.96;101585.78;6278246;22;20101;-77
2023/06/15 10:33:18;;;;;;;6.30;2.25;;;;;;;28.41;33.33;101588.69;6275766;22;20432;-78
2023/06/15 10:36:09;;;;;;;5.68;2.22;;;;;;;29.37;31.73;101598.19;6277302;22;20004;-77
2023/06/15 10:38:49;;;;;;;3.30;2.30;;;;;;;28.34;33.01;101590.66;6278623;22;20380;-76
2023/06/15 10:41:15;;;;;;;8.25;2.58;;;;;;;29.50;31.31;101595.25;6275638;22;20011;-76
2023/06/15 10:44:05;;;;;;;4.60;2.53;;;;;;;28.97;31.61;101584.31;6275913;22;20343;-77
2023/06/15 10:46:34;;;;;;;4.60;2.28;;;;;;;29.38;30.20;101591.44;6276173;22;20105;-77
2023/06/15 10:49:09;;;;;;;2.42;2.05;;;;;;;29.50;31.10;101581.13;6275679;22;20430;-77
2023/06/15 10:51:38;;;;;;;2.80;2.03;;;;;;;29.59;30.89;101578.88;6276958;22;20081;-77
2023/06/15 10:54:05;;;;;;;4.68;2.28;;;;;;;29.26;30.03;101579.16;6274991;22;20016;-75
2023/06/15 10:56:31;;;;;;;3.42;2.03;;;;;;;29.33;30.32;101577.16;6250215;22;20098;-75
2023/06/15 10:59:07;;;;;;;5.13;2.10;;;;;;;29.77;30.60;101585.69;6276376;22;20684;-76
2023/06/15 11:01:33;;;;;;;3.90;2.58;;;;;;;29.45;29.68;101585.72;6276628;22;20003;-76
2023/06/15 11:04:28;;;;;;;5.50;2.22;;;;;;;29.30;30.90;101586.06;6274808;22;20039;-76
2023/06/15 11:07:01;;;;;;;3.67;2.00;;;;;;;29.77;30.92;101585.69;6275807;22;20004;-78
2023/06/15 11:09:29;;;;;;;5.65;1.98;;;;;;;29.55;29.56;101577.63;6275043;22;20008;-76
2023/06/15 11:11:56;;;;;;;4.72;1.92;;;;;;;29.98;29.32;101573.97;6249211;22;20486;-77
2023/06/15 11:14:22;;;;;;;3.58;2.20;;;;;;;29.23;30.18;101576.78;6275110;22;20367;-77
2023/06/15 11:17:05;;;;;;;3.55;2.03;;;;;;;28.96;29.33;101582.59;6275157;22;20454;-76
2023/06/15 11:19:31;;;;;;;8.75;2.40;;;;;;;29.39;29.28;101575.38;6276328;22;20004;-76
2023/06/15 11:22:06;;;;;;;5.70;2.13;;;;;;;29.32;30.49;101584.75;6274728;22;20018;-77